Time;durP1;ratioP1;P1;durP2;ratioP2;P2;SDS_P1;SDS_P2;PMS_P1;PMS_P2;Temp;Humidity;BMP_temperature;BMP_pressure;BME280_temperature;BME280_humidity;BME280_pressure;Samples;Min_cycle;Max_cycle;Signal;HPM_P1;HPM_P2
2022/09/06 00:01:23;;;;;;;23.05;2.78;;;;;;;;;;5010615;28;20420;-66
2022/09/06 00:03:49;;;;;;;9.50;1.70;;;;;;;;;;5012927;28;20038;-66
2022/09/06 00:06:16;;;;;;;13.00;3.25;;;;;;;;;;5015476;28;20755;-66
2022/09/06 00:08:43;;;;;;;12.95;2.28;;;;;;;;;;5015514;28;20084;-66
2022/09/06 00:11:09;;;;;;;15.00;2.08;;;;;;;;;;5015592;28;20568;-66
2022/09/06 00:13:35;;;;;;;17.40;3.58;;;;;;;;;;5015424;28;20034;-66
2022/09/06 00:16:30;;;;;;;13.00;2.63;;;;;;;;;;5008008;28;20018;-66
2022/09/06 00:18:57;;;;;;;17.58;2.33;;;;;;;;;;5001435;28;20133;-66
2022/09/06 00:21:25;;;;;;;17.38;3.42;;;;;;;;;;5009218;28;20027;-66
2022/09/06 00:23:51;;;;;;;15.23;2.67;;;;;;;;;;5015482;28;20073;-66
2022/09/06 00:26:17;;;;;;;11.45;2.22;;;;;;;;;;5015368;28;20021;-66
2022/09/06 00:28:44;;;;;;;12.38;2.83;;;;;;;;;;5015449;28;20026;-66
2022/09/06 00:31:11;;;;;;;9.13;2.10;;;;;;;;;;5015622;28;20105;-66
2022/09/06 00:33:37;;;;;;;7.32;1.80;;;;;;;;;;5015204;28;20026;-66
2022/09/06 00:36:03;;;;;;;9.82;2.05;;;;;;;;;;5014862;28;20034;-66
2022/09/06 00:38:29;;;;;;;13.13;2.40;;;;;;;;;;5006022;28;20072;-66
2022/09/06 00:40:57;;;;;;;7.35;2.28;;;;;;;;;;5009698;28;20084;-66
2022/09/06 00:43:23;;;;;;;8.60;2.22;;;;;;;;;;5015333;28;20040;-66
2022/09/06 00:45:49;;;;;;;13.10;1.98;;;;;;;;;;5022227;28;20389;-66
2022/09/06 00:48:16;;;;;;;16.52;2.67;;;;;;;;;;5014658;28;20117;-66
2022/09/06 00:50:43;;;;;;;14.18;2.83;;;;;;;;;;5014865;28;20026;-66
2022/09/06 00:53:10;;;;;;;19.08;2.40;;;;;;;;;;5004773;28;20030;-66
2022/09/06 00:55:36;;;;;;;13.00;1.65;;;;;;;;;;5016476;28;20025;-66
2022/09/06 00:58:02;;;;;;;8.38;2.53;;;;;;;;;;5014889;28;20053;-66
2022/09/06 01:00:28;;;;;;;12.98;2.33;;;;;;;;;;5014790;28;20030;-66
2022/09/06 01:02:55;;;;;;;5.32;2.03;;;;;;;;;;5014670;28;20470;-66
2022/09/06 01:05:23;;;;;;;12.80;2.35;;;;;;;;;;5014879;28;20148;-66
2022/09/06 01:08:04;;;;;;;10.55;2.35;;;;;;;;;;5014459;28;20129;-66
2022/09/06 01:10:30;;;;;;;10.68;2.10;;;;;;;;;;5014490;28;20482;-66
2022/09/06 01:13:15;;;;;;;11.18;2.78;;;;;;;;;;5015904;28;20026;-66
2022/09/06 01:15:50;;;;;;;14.70;1.85;;;;;;;;;;5012970;28;20033;-66
2022/09/06 01:18:16;;;;;;;9.43;2.05;;;;;;;;;;5004319;28;20023;-66
2022/09/06 01:20:52;;;;;;;8.65;2.60;;;;;;;;;;5015146;28;20029;-66
2022/09/06 01:23:37;;;;;;;11.65;1.90;;;;;;;;;;5018863;28;20107;-66
2022/09/06 01:26:21;;;;;;;14.18;2.55;;;;;;;;;;5003940;28;20074;-66
2022/09/06 01:28:49;;;;;;;14.57;2.50;;;;;;;;;;5002720;28;20026;-66
2022/09/06 01:31:34;;;;;;;10.10;2.10;;;;;;;;;;5014235;28;20026;-66
2022/09/06 01:34:03;;;;;;;12.13;2.03;;;;;;;;;;5012996;28;20075;-66
2022/09/06 01:36:33;;;;;;;9.00;1.92;;;;;;;;;;5045365;28;20030;-66
2022/09/06 01:39:00;;;;;;;14.57;2.30;;;;;;;;;;5011448;28;20033;-66
2022/09/06 01:41:26;;;;;;;17.40;3.95;;;;;;;;;;5015217;28;20096;-66
2022/09/06 01:43:53;;;;;;;19.75;3.25;;;;;;;;;;5014204;28;20112;-66
2022/09/06 01:46:24;;;;;;;14.85;2.05;;;;;;;;;;5013114;28;20037;-66
2022/09/06 01:48:50;;;;;;;9.50;2.40;;;;;;;;;;5013853;28;20056;-66
2022/09/06 01:51:26;;;;;;;15.48;2.85;;;;;;;;;;5013151;28;20042;-66
2022/09/06 01:54:17;;;;;;;12.05;2.22;;;;;;;;;;5013367;28;20026;-66
2022/09/06 01:56:57;;;;;;;19.83;2.50;;;;;;;;;;5018946;28;20036;-66
2022/09/06 01:59:30;;;;;;;12.90;2.35;;;;;;;;;;5012714;28;20026;-66
2022/09/06 02:02:03;;;;;;;15.88;2.70;;;;;;;;;;5019260;28;20037;-66
2022/09/06 02:04:31;;;;;;;18.42;2.67;;;;;;;;;;5002376;28;20037;-66
2022/09/06 02:07:00;;;;;;;15.57;2.65;;;;;;;;;;5013185;28;20058;-66
2022/09/06 02:09:27;;;;;;;12.60;2.50;;;;;;;;;;5013616;28;20029;-66
2022/09/06 02:11:58;;;;;;;10.70;2.33;;;;;;;;;;5014396;28;20033;-66
2022/09/06 02:14:27;;;;;;;12.95;1.75;;;;;;;;;;5016254;28;20109;-66
2022/09/06 02:16:54;;;;;;;13.60;2.83;;;;;;;;;;5013036;28;20371;-66
2022/09/06 02:19:24;;;;;;;11.48;2.65;;;;;;;;;;5013556;28;20030;-66
2022/09/06 02:21:51;;;;;;;10.32;2.38;;;;;;;;;;5013159;28;20029;-66
2022/09/06 02:24:22;;;;;;;14.10;2.17;;;;;;;;;;5012989;28;20056;-66
2022/09/06 02:26:48;;;;;;;15.65;2.00;;;;;;;;;;5023303;28;20030;-66
2022/09/06 02:29:15;;;;;;;12.15;2.42;;;;;;;;;;5013283;28;20030;-66
2022/09/06 02:31:46;;;;;;;6.30;2.08;;;;;;;;;;5013171;28;20052;-66
2022/09/06 02:34:17;;;;;;;14.15;2.83;;;;;;;;;;5012862;28;20026;-66
2022/09/06 02:36:44;;;;;;;15.88;2.65;;;;;;;;;;5012933;28;20387;-66
2022/09/06 02:39:10;;;;;;;15.25;2.25;;;;;;;;;;5015962;28;20044;-65
2022/09/06 02:41:37;;;;;;;18.13;3.92;;;;;;;;;;5013300;28;20036;-66
2022/09/06 02:44:03;;;;;;;20.67;2.80;;;;;;;;;;5012784;28;20523;-66
2022/09/06 02:46:29;;;;;;;14.30;3.10;;;;;;;;;;5011896;28;20048;-66
2022/09/06 02:48:56;;;;;;;17.42;4.70;;;;;;;;;;5013060;28;20037;-66
2022/09/06 02:51:22;;;;;;;21.58;3.13;;;;;;;;;;4999624;28;20084;-66
2022/09/06 02:53:48;;;;;;;8.15;2.05;;;;;;;;;;5013106;28;20478;-66
2022/09/06 02:56:14;;;;;;;10.27;2.10;;;;;;;;;;5011266;28;20022;-66
2022/09/06 02:58:40;;;;;;;15.20;2.60;;;;;;;;;;5006661;28;20544;-66
2022/09/06 03:01:06;;;;;;;15.52;2.65;;;;;;;;;;5012586;28;20080;-66
2022/09/06 03:03:33;;;;;;;22.52;3.17;;;;;;;;;;5014181;28;20108;-66
2022/09/06 03:05:59;;;;;;;14.18;2.78;;;;;;;;;;5014795;28;20501;-66
2022/09/06 03:08:28;;;;;;;13.18;2.72;;;;;;;;;;5011805;28;20046;-66
2022/09/06 03:10:55;;;;;;;8.45;2.42;;;;;;;;;;5012048;28;20095;-66
2022/09/06 03:13:22;;;;;;;14.52;2.47;;;;;;;;;;5012587;28;20120;-66
2022/09/06 03:15:56;;;;;;;16.40;2.40;;;;;;;;;;5012182;28;20112;-66
2022/09/06 03:18:22;;;;;;;17.52;3.78;;;;;;;;;;5012876;28;20474;-65
2022/09/06 03:20:49;;;;;;;17.73;2.30;;;;;;;;;;5017515;28;20084;-66
2022/09/06 03:23:16;;;;;;;18.05;2.28;;;;;;;;;;5018472;28;20033;-66
2022/09/06 03:25:43;;;;;;;10.07;2.28;;;;;;;;;;5012640;28;20057;-66
2022/09/06 03:28:09;;;;;;;12.50;2.25;;;;;;;;;;5012412;28;20038;-66
2022/09/06 03:30:36;;;;;;;18.05;2.30;;;;;;;;;;5012377;28;20038;-66
2022/09/06 03:33:02;;;;;;;18.80;2.92;;;;;;;;;;5003729;28;20034;-66
2022/09/06 03:35:28;;;;;;;12.65;2.45;;;;;;;;;;5012537;28;20448;-66
2022/09/06 03:37:54;;;;;;;16.63;3.08;;;;;;;;;;5012432;28;20018;-66
2022/09/06 03:40:20;;;;;;;22.08;2.45;;;;;;;;;;5012221;28;20030;-66
2022/09/06 03:42:46;;;;;;;16.38;2.58;;;;;;;;;;5020504;28;20013;-66
2022/09/06 03:45:12;;;;;;;15.73;2.80;;;;;;;;;;5006838;28;20104;-66
2022/09/06 03:47:38;;;;;;;10.52;2.58;;;;;;;;;;5009808;28;20125;-66
2022/09/06 03:50:05;;;;;;;12.73;2.42;;;;;;;;;;5012246;28;20029;-66
2022/09/06 03:52:32;;;;;;;17.52;3.38;;;;;;;;;;5011810;28;20033;-66
2022/09/06 03:54:58;;;;;;;11.98;2.70;;;;;;;;;;5012466;28;20088;-66
2022/09/06 03:57:24;;;;;;;19.25;2.63;;;;;;;;;;5012196;28;20112;-65
2022/09/06 03:59:50;;;;;;;16.25;2.83;;;;;;;;;;5023132;28;20540;-66
2022/09/06 04:02:16;;;;;;;11.07;2.95;;;;;;;;;;5005411;28;20038;-65
2022/09/06 04:04:42;;;;;;;14.52;2.45;;;;;;;;;;5010574;28;20116;-66
2022/09/06 04:07:08;;;;;;;14.50;2.53;;;;;;;;;;5013840;28;20113;-66
2022/09/06 04:09:34;;;;;;;16.80;3.05;;;;;;;;;;5009916;28;20062;-66
2022/09/06 04:12:00;;;;;;;17.42;3.20;;;;;;;;;;5006052;28;20041;-66
2022/09/06 04:14:26;;;;;;;16.55;3.10;;;;;;;;;;5011374;28;20037;-66
2022/09/06 04:16:53;;;;;;;18.05;2.90;;;;;;;;;;5010845;28;20443;-65
2022/09/06 04:19:19;;;;;;;20.73;3.13;;;;;;;;;;5011185;28;20097;-66
2022/09/06 04:21:45;;;;;;;18.70;2.70;;;;;;;;;;5004880;28;20072;-66
2022/09/06 04:24:11;;;;;;;20.30;3.33;;;;;;;;;;5015485;28;20065;-66
2022/09/06 04:26:37;;;;;;;13.60;2.72;;;;;;;;;;5013965;28;20026;-66
2022/09/06 04:29:03;;;;;;;12.10;3.03;;;;;;;;;;5015750;28;20036;-66
2022/09/06 04:31:30;;;;;;;14.88;3.33;;;;;;;;;;5017101;28;20037;-66
2022/09/06 04:33:56;;;;;;;22.98;2.67;;;;;;;;;;5014502;28;20030;-66
2022/09/06 04:36:22;;;;;;;20.48;3.00;;;;;;;;;;5013806;28;20367;-66
2022/09/06 04:38:48;;;;;;;12.90;2.97;;;;;;;;;;5013338;28;20030;-66
2022/09/06 04:41:15;;;;;;;11.75;2.28;;;;;;;;;;5014728;28;20462;-66
2022/09/06 04:43:41;;;;;;;14.45;3.65;;;;;;;;;;5002433;28;20029;-66
2022/09/06 04:46:23;;;;;;;18.42;3.50;;;;;;;;;;5006070;28;20038;-66
2022/09/06 04:48:49;;;;;;;16.35;2.47;;;;;;;;;;5013955;28;20034;-66
2022/09/06 04:51:16;;;;;;;17.88;2.83;;;;;;;;;;5012964;28;20111;-66
2022/09/06 04:53:42;;;;;;;13.55;2.50;;;;;;;;;;5013869;28;20113;-66
2022/09/06 04:56:12;;;;;;;16.65;3.50;;;;;;;;;;5012288;28;20026;-66
2022/09/06 04:58:38;;;;;;;15.15;2.65;;;;;;;;;;5012146;28;20026;-66
2022/09/06 05:01:04;;;;;;;18.40;2.60;;;;;;;;;;5011908;28;20116;-66
2022/09/06 05:03:30;;;;;;;21.85;3.00;;;;;;;;;;5009886;28;20026;-66
2022/09/06 05:06:04;;;;;;;14.80;2.63;;;;;;;;;;5011456;28;20046;-66
2022/09/06 05:08:30;;;;;;;14.45;3.15;;;;;;;;;;5012610;28;20064;-67
2022/09/06 05:10:56;;;;;;;13.63;2.55;;;;;;;;;;5010882;28;20048;-66
2022/09/06 05:13:22;;;;;;;19.10;2.97;;;;;;;;;;5012524;28;20026;-66
2022/09/06 05:15:48;;;;;;;10.93;2.05;;;;;;;;;;5008005;28;20482;-67
2022/09/06 05:18:14;;;;;;;14.55;3.00;;;;;;;;;;5012878;28;20026;-67
2022/09/06 05:20:40;;;;;;;12.02;1.95;;;;;;;;;;5007467;28;20041;-66
2022/09/06 05:23:06;;;;;;;15.80;3.92;;;;;;;;;;5011563;28;20029;-67
2022/09/06 05:25:32;;;;;;;11.68;2.72;;;;;;;;;;5013868;28;20028;-66
2022/09/06 05:27:58;;;;;;;11.77;2.17;;;;;;;;;;4996363;28;20026;-66
2022/09/06 05:30:24;;;;;;;16.10;3.47;;;;;;;;;;5004780;28;20044;-64
2022/09/06 05:32:51;;;;;;;17.98;2.45;;;;;;;;;;5015803;28;20056;-65
2022/09/06 05:35:17;;;;;;;15.02;2.65;;;;;;;;;;5008125;28;20387;-66
2022/09/06 05:37:43;;;;;;;17.98;2.80;;;;;;;;;;5005663;28;20026;-66
2022/09/06 05:40:09;;;;;;;16.67;2.88;;;;;;;;;;5011127;28;20026;-66
2022/09/06 05:42:35;;;;;;;15.68;2.47;;;;;;;;;;5020509;28;20211;-66
2022/09/06 05:45:01;;;;;;;15.05;3.55;;;;;;;;;;5008526;28;20168;-66
2022/09/06 05:47:29;;;;;;;14.68;2.53;;;;;;;;;;5006099;28;20088;-65
2022/09/06 05:49:56;;;;;;;10.75;2.78;;;;;;;;;;5013966;28;20030;-65
2022/09/06 05:52:22;;;;;;;14.30;3.15;;;;;;;;;;5014099;28;20033;-64
2022/09/06 05:54:48;;;;;;;18.52;3.00;;;;;;;;;;5013909;28;20018;-65
2022/09/06 05:57:15;;;;;;;15.35;2.70;;;;;;;;;;5012086;28;20030;-64
2022/09/06 05:59:41;;;;;;;23.08;2.55;;;;;;;;;;5016874;28;20563;-64
2022/09/06 06:02:07;;;;;;;18.40;3.20;;;;;;;;;;5007199;28;20025;-64
2022/09/06 06:04:33;;;;;;;18.08;4.00;;;;;;;;;;5013259;28;20033;-64
2022/09/06 06:06:59;;;;;;;16.88;3.15;;;;;;;;;;5005455;28;20033;-64
2022/09/06 06:09:25;;;;;;;19.35;3.30;;;;;;;;;;5009238;28;20022;-64
2022/09/06 06:11:51;;;;;;;16.13;3.05;;;;;;;;;;5009944;28;20030;-64
2022/09/06 06:14:17;;;;;;;16.65;2.83;;;;;;;;;;5009870;28;21152;-64
2022/09/06 06:16:43;;;;;;;25.73;4.22;;;;;;;;;;5008058;28;20030;-64
2022/09/06 06:19:10;;;;;;;15.80;2.45;;;;;;;;;;5010570;28;20458;-64
2022/09/06 06:21:37;;;;;;;18.15;3.03;;;;;;;;;;5008259;28;20112;-64
2022/09/06 06:24:04;;;;;;;14.48;2.80;;;;;;;;;;5017952;28;20034;-64
2022/09/06 06:26:31;;;;;;;12.50;2.88;;;;;;;;;;5018994;28;20044;-64
2022/09/06 06:29:00;;;;;;;17.20;2.58;;;;;;;;;;5024046;28;20029;-64
2022/09/06 06:31:27;;;;;;;20.88;3.00;;;;;;;;;;5011741;28;20482;-64
2022/09/06 06:33:53;;;;;;;19.05;2.35;;;;;;;;;;5011641;28;20033;-64
2022/09/06 06:36:21;;;;;;;12.82;2.72;;;;;;;;;;5015992;28;20080;-64
2022/09/06 06:38:48;;;;;;;22.02;4.00;;;;;;;;;;5011186;28;20049;-65
2022/09/06 06:41:15;;;;;;;21.80;3.78;;;;;;;;;;5003753;28;20030;-65
2022/09/06 06:43:41;;;;;;;15.63;2.70;;;;;;;;;;5012291;28;20028;-65
2022/09/06 06:46:08;;;;;;;18.17;3.33;;;;;;;;;;5012388;28;20037;-65
2022/09/06 06:48:35;;;;;;;19.80;3.03;;;;;;;;;;5012646;28;20057;-65
2022/09/06 06:51:01;;;;;;;19.48;2.92;;;;;;;;;;5012803;28;20113;-65
2022/09/06 06:53:27;;;;;;;18.13;2.85;;;;;;;;;;5012820;28;20030;-65
2022/09/06 06:55:54;;;;;;;16.02;2.28;;;;;;;;;;5012870;28;20028;-66
2022/09/06 06:58:20;;;;;;;14.13;2.72;;;;;;;;;;5012456;28;20025;-65
2022/09/06 07:00:46;;;;;;;19.33;4.05;;;;;;;;;;5012636;28;20512;-65
2022/09/06 07:03:13;;;;;;;16.23;2.83;;;;;;;;;;5012645;28;20030;-65
2022/09/06 07:05:41;;;;;;;21.63;3.40;;;;;;;;;;5010025;28;20053;-65
2022/09/06 07:08:08;;;;;;;15.73;2.83;;;;;;;;;;5012587;28;20129;-65
2022/09/06 07:10:34;;;;;;;18.33;2.50;;;;;;;;;;5012608;28;20116;-65
2022/09/06 07:13:00;;;;;;;15.10;2.80;;;;;;;;;;5012544;28;20065;-65
2022/09/06 07:15:26;;;;;;;16.83;2.80;;;;;;;;;;5012165;28;20066;-65
2022/09/06 07:17:54;;;;;;;19.73;3.65;;;;;;;;;;5012793;28;20477;-65
2022/09/06 07:20:20;;;;;;;14.45;2.80;;;;;;;;;;5012523;28;20117;-65
2022/09/06 07:22:46;;;;;;;14.38;2.55;;;;;;;;;;5012683;28;20528;-65
2022/09/06 07:25:14;;;;;;;11.10;2.38;;;;;;;;;;5012536;28;20056;-65
2022/09/06 07:27:42;;;;;;;17.90;2.95;;;;;;;;;;5012498;28;20037;-65
2022/09/06 07:30:09;;;;;;;13.90;2.92;;;;;;;;;;5012327;28;20040;-65
2022/09/06 07:32:35;;;;;;;13.70;2.60;;;;;;;;;;5012177;28;20033;-65
2022/09/06 07:35:01;;;;;;;16.75;3.00;;;;;;;;;;5010862;28;20401;-65
2022/09/06 07:37:27;;;;;;;14.43;2.05;;;;;;;;;;5012008;28;20026;-65
2022/09/06 07:39:53;;;;;;;16.73;3.08;;;;;;;;;;5012166;28;20022;-65
2022/09/06 07:42:19;;;;;;;20.73;3.30;;;;;;;;;;5012149;28;20025;-65
2022/09/06 07:44:45;;;;;;;11.00;2.05;;;;;;;;;;5012138;28;20038;-65
2022/09/06 07:47:12;;;;;;;8.95;2.38;;;;;;;;;;5012498;28;20046;-65
2022/09/06 07:49:38;;;;;;;13.35;2.20;;;;;;;;;;5011753;28;20022;-65
2022/09/06 07:52:04;;;;;;;16.67;3.05;;;;;;;;;;5012350;28;20038;-65
2022/09/06 07:54:30;;;;;;;10.40;2.15;;;;;;;;;;5011874;28;20033;-65
2022/09/06 07:56:56;;;;;;;14.70;2.60;;;;;;;;;;5012882;28;20026;-65
2022/09/06 07:59:22;;;;;;;17.33;2.47;;;;;;;;;;5015634;28;20021;-65
2022/09/06 08:01:48;;;;;;;11.65;2.33;;;;;;;;;;5016269;28;20045;-65
2022/09/06 08:04:14;;;;;;;11.68;2.15;;;;;;;;;;5015958;28;20108;-65
2022/09/06 08:06:42;;;;;;;14.35;3.08;;;;;;;;;;5015727;28;20105;-65
2022/09/06 08:09:09;;;;;;;10.55;2.13;;;;;;;;;;5015485;28;20045;-65
2022/09/06 08:11:36;;;;;;;16.73;2.88;;;;;;;;;;5015624;28;20478;-65
2022/09/06 08:14:04;;;;;;;9.70;2.47;;;;;;;;;;5015677;28;20106;-65
2022/09/06 08:16:31;;;;;;;9.75;1.88;;;;;;;;;;5015561;28;20014;-65
2022/09/06 08:18:58;;;;;;;9.65;2.10;;;;;;;;;;5015644;28;20034;-65
2022/09/06 08:21:25;;;;;;;16.63;2.05;;;;;;;;;;5015552;28;20022;-65
2022/09/06 08:23:52;;;;;;;11.38;2.55;;;;;;;;;;5015151;28;20032;-65
2022/09/06 08:26:22;;;;;;;15.35;2.47;;;;;;;;;;5015407;28;20033;-65
2022/09/06 08:28:52;;;;;;;14.45;2.38;;;;;;;;;;5015355;28;20041;-65
2022/09/06 08:31:18;;;;;;;12.57;2.80;;;;;;;;;;5015507;28;20030;-65
2022/09/06 08:33:46;;;;;;;8.30;2.30;;;;;;;;;;5009030;28;20034;-65
2022/09/06 08:36:13;;;;;;;11.13;2.13;;;;;;;;;;5009716;28;20053;-65
2022/09/06 08:38:39;;;;;;;13.52;2.85;;;;;;;;;;5002768;28;20028;-65
2022/09/06 08:41:11;;;;;;;13.15;2.83;;;;;;;;;;5005216;28;20038;-65
2022/09/06 08:43:38;;;;;;;10.98;2.15;;;;;;;;;;5014012;28;20084;-65
2022/09/06 08:46:06;;;;;;;13.18;2.20;;;;;;;;;;5015242;28;20938;-65
2022/09/06 08:48:35;;;;;;;8.65;3.22;;;;;;;;;;5015212;28;20054;-65
2022/09/06 08:51:11;;;;;;;11.48;2.28;;;;;;;;;;5015068;28;20379;-65
2022/09/06 08:53:41;;;;;;;13.18;2.00;;;;;;;;;;5014821;28;20026;-65
2022/09/06 08:56:10;;;;;;;15.27;3.08;;;;;;;;;;5014841;28;20014;-65
2022/09/06 08:58:55;;;;;;;15.27;2.65;;;;;;;;;;5014979;28;20028;-65
2022/09/06 09:01:24;;;;;;;21.42;2.17;;;;;;;;;;5003072;28;20057;-65
2022/09/06 09:03:52;;;;;;;11.02;2.20;;;;;;;;;;5005085;28;20089;-65
2022/09/06 09:06:18;;;;;;;15.07;2.28;;;;;;;;;;5014895;28;20022;-65
2022/09/06 09:08:53;;;;;;;16.15;2.53;;;;;;;;;;5013362;28;20410;-65
2022/09/06 09:11:21;;;;;;;12.75;2.47;;;;;;;;;;5014862;28;20026;-65
2022/09/06 09:13:47;;;;;;;17.50;2.80;;;;;;;;;;5014460;28;20038;-65
2022/09/06 09:16:14;;;;;;;20.75;2.78;;;;;;;;;;5014897;28;20424;-65
2022/09/06 09:18:42;;;;;;;7.28;2.13;;;;;;;;;;5014433;28;20075;-65
2022/09/06 09:21:09;;;;;;;10.30;2.17;;;;;;;;;;5014573;28;20034;-65
2022/09/06 09:23:35;;;;;;;14.38;2.42;;;;;;;;;;5014129;28;20053;-65
2022/09/06 09:26:03;;;;;;;13.27;2.40;;;;;;;;;;5014479;28;20037;-65
2022/09/06 09:28:29;;;;;;;11.40;3.03;;;;;;;;;;5014521;28;20097;-65
2022/09/06 09:30:56;;;;;;;13.85;2.50;;;;;;;;;;5014381;28;20046;-65
2022/09/06 09:33:22;;;;;;;10.98;2.38;;;;;;;;;;5014243;28;20029;-65
2022/09/06 09:35:48;;;;;;;10.57;1.80;;;;;;;;;;5013887;28;20357;-65
2022/09/06 09:38:23;;;;;;;13.25;2.80;;;;;;;;;;5014087;28;20026;-65
2022/09/06 09:41:01;;;;;;;7.80;1.98;;;;;;;;;;5014192;28;20040;-65
2022/09/06 09:43:31;;;;;;;16.23;2.55;;;;;;;;;;5014041;28;20026;-65
2022/09/06 09:46:16;;;;;;;13.38;2.50;;;;;;;;;;5013873;28;20478;-65
2022/09/06 09:48:59;;;;;;;11.15;2.95;;;;;;;;;;5013868;28;20034;-65
2022/09/06 09:51:25;;;;;;;15.95;2.20;;;;;;;;;;5013701;28;20038;-65
2022/09/06 09:53:53;;;;;;;14.30;2.53;;;;;;;;;;5013842;28;20494;-65
2022/09/06 09:56:26;;;;;;;11.45;2.03;;;;;;;;;;5028958;28;20374;-65
2022/09/06 09:58:53;;;;;;;14.55;2.15;;;;;;;;;;5013940;28;20389;-65
2022/09/06 10:01:25;;;;;;;15.63;2.47;;;;;;;;;;5001920;28;20080;-65
2022/09/06 10:03:52;;;;;;;18.10;2.47;;;;;;;;;;5009605;28;20030;-65
2022/09/06 10:06:25;;;;;;;11.45;2.78;;;;;;;;;;5013192;28;20034;-65
2022/09/06 10:08:51;;;;;;;15.88;2.72;;;;;;;;;;5012652;28;20053;-65
2022/09/06 10:11:36;;;;;;;13.50;2.50;;;;;;;;;;5013310;28;20034;-65
2022/09/06 10:14:09;;;;;;;16.92;2.75;;;;;;;;;;5012799;28;20034;-65
2022/09/06 10:16:42;;;;;;;10.40;2.28;;;;;;;;;;5013071;28;20050;-65
2022/09/06 10:19:21;;;;;;;18.60;2.97;;;;;;;;;;5012688;28;20401;-65
2022/09/06 10:21:47;;;;;;;15.65;2.70;;;;;;;;;;5013189;28;20083;-65
2022/09/06 10:24:26;;;;;;;15.48;2.53;;;;;;;;;;5013554;28;20034;-65
2022/09/06 10:26:56;;;;;;;15.98;2.13;;;;;;;;;;5010550;28;20029;-65
2022/09/06 10:29:25;;;;;;;13.73;2.75;;;;;;;;;;5011443;28;20034;-64
2022/09/06 10:31:57;;;;;;;15.63;2.53;;;;;;;;;;5003332;28;20537;-65
2022/09/06 10:34:33;;;;;;;12.77;1.98;;;;;;;;;;5015660;28;20095;-65
2022/09/06 10:37:18;;;;;;;10.50;2.30;;;;;;;;;;5012621;28;20030;-64
2022/09/06 10:39:50;;;;;;;10.63;2.72;;;;;;;;;;5012588;28;20014;-64
2022/09/06 10:42:19;;;;;;;5.15;1.85;;;;;;;;;;5012100;28;20030;-64
2022/09/06 10:45:02;;;;;;;8.88;1.30;;;;;;;;;;5006723;28;20041;-64
2022/09/06 10:47:44;;;;;;;6.88;1.58;;;;;;;;;;5014438;28;20125;-64
2022/09/06 10:50:10;;;;;;;9.95;2.00;;;;;;;;;;5003833;28;20029;-64
2022/09/06 10:52:40;;;;;;;6.43;1.77;;;;;;;;;;5008949;28;20433;-65
2022/09/06 10:55:08;;;;;;;10.77;2.08;;;;;;;;;;5001701;28;20045;-65
2022/09/06 10:57:44;;;;;;;10.27;1.98;;;;;;;;;;5010031;28;20040;-64
2022/09/06 11:00:12;;;;;;;7.72;1.55;;;;;;;;;;5012701;28;20058;-65
2022/09/06 11:02:47;;;;;;;13.70;2.75;;;;;;;;;;5002660;28;20026;-64
2022/09/06 11:05:19;;;;;;;9.65;2.42;;;;;;;;;;5009423;28;20509;-64
2022/09/06 11:08:15;;;;;;;13.30;2.35;;;;;;;;;;5011903;28;20406;-64
2022/09/06 11:10:44;;;;;;;14.77;2.30;;;;;;;;;;4996910;28;20049;-64
2022/09/06 11:13:18;;;;;;;12.82;2.42;;;;;;;;;;5012527;28;20026;-64
2022/09/06 11:16:02;;;;;;;10.02;2.08;;;;;;;;;;5014543;28;20025;-64
2022/09/06 11:18:31;;;;;;;14.52;2.35;;;;;;;;;;5020894;28;20030;-64
2022/09/06 11:21:13;;;;;;;17.45;3.35;;;;;;;;;;5012572;28;20018;-64
2022/09/06 11:23:47;;;;;;;11.70;2.17;;;;;;;;;;5012820;28;20030;-65
2022/09/06 11:26:33;;;;;;;11.05;2.53;;;;;;;;;;5009159;28;20124;-64
2022/09/06 11:29:01;;;;;;;19.17;2.70;;;;;;;;;;5015280;28;20478;-64
2022/09/06 11:31:32;;;;;;;12.32;2.80;;;;;;;;;;5013701;28;20042;-64
2022/09/06 11:34:09;;;;;;;20.33;4.35;;;;;;;;;;5013032;28;20061;-64
2022/09/06 11:36:37;;;;;;;13.98;2.58;;;;;;;;;;5017335;28;20056;-64
2022/09/06 11:39:05;;;;;;;18.55;3.33;;;;;;;;;;5009107;28;20044;-64
2022/09/06 11:41:32;;;;;;;10.30;2.75;;;;;;;;;;5006050;28;20068;-64
2022/09/06 11:43:58;;;;;;;19.17;2.80;;;;;;;;;;5014423;28;20030;-64
2022/09/06 11:46:34;;;;;;;25.52;3.28;;;;;;;;;;5009579;28;20018;-64
2022/09/06 11:49:01;;;;;;;15.88;2.75;;;;;;;;;;5008371;28;20046;-64
2022/09/06 11:51:37;;;;;;;16.42;2.55;;;;;;;;;;5010414;28;20029;-65
2022/09/06 11:54:18;;;;;;;20.55;3.75;;;;;;;;;;5014695;28;20033;-65
2022/09/06 11:56:59;;;;;;;17.88;2.50;;;;;;;;;;5016694;28;20026;-65
2022/09/06 11:59:28;;;;;;;20.33;3.50;;;;;;;;;;5016480;28;20050;-65
2022/09/06 12:02:01;;;;;;;15.10;3.80;;;;;;;;;;5016379;28;20050;-65
2022/09/06 12:04:46;;;;;;;9.93;2.40;;;;;;;;;;5016319;28;20037;-65
2022/09/06 12:07:12;;;;;;;10.00;2.47;;;;;;;;;;5016031;28;20061;-64
2022/09/06 12:09:42;;;;;;;16.35;2.60;;;;;;;;;;5016439;28;20497;-65
2022/09/06 12:12:09;;;;;;;7.97;2.47;;;;;;;;;;5016121;28;20460;-65
2022/09/06 12:14:39;;;;;;;16.15;2.78;;;;;;;;;;5016260;28;20025;-65
2022/09/06 12:17:06;;;;;;;13.77;2.13;;;;;;;;;;5015800;28;20037;-65
2022/09/06 12:19:48;;;;;;;12.23;2.30;;;;;;;;;;5016011;28;20490;-65
2022/09/06 12:22:26;;;;;;;13.52;2.58;;;;;;;;;;5016077;28;20458;-65
2022/09/06 12:25:12;;;;;;;7.70;2.13;;;;;;;;;;5016041;28;20037;-65
2022/09/06 12:27:43;;;;;;;11.48;2.03;;;;;;;;;;4974626;28;20569;-65
2022/09/06 12:30:10;;;;;;;10.00;1.77;;;;;;;;;;4974554;28;20484;-65
2022/09/06 12:32:44;;;;;;;10.85;2.38;;;;;;;;;;4974243;28;20039;-65
2022/09/06 12:35:15;;;;;;;13.07;2.75;;;;;;;;;;4974220;28;20045;-64
2022/09/06 12:37:58;;;;;;;15.27;2.30;;;;;;;;;;4974613;28;20091;-65
2022/09/06 12:40:25;;;;;;;12.52;2.38;;;;;;;;;;4974245;28;20076;-65
2022/09/06 12:42:52;;;;;;;16.98;2.15;;;;;;;;;;4973569;28;20042;-65
2022/09/06 12:45:20;;;;;;;9.35;1.70;;;;;;;;;;4974047;28;20051;-65
2022/09/06 12:47:46;;;;;;;14.55;2.50;;;;;;;;;;4974436;28;20029;-65
2022/09/06 12:50:12;;;;;;;13.25;2.28;;;;;;;;;;4974258;28;20077;-65
2022/09/06 12:52:44;;;;;;;15.38;3.10;;;;;;;;;;4974071;28;20507;-65
2022/09/06 12:55:19;;;;;;;17.13;2.55;;;;;;;;;;4974509;28;20037;-65
2022/09/06 12:57:50;;;;;;;10.32;2.20;;;;;;;;;;4974344;28;20034;-65
2022/09/06 13:00:18;;;;;;;12.35;2.25;;;;;;;;;;4973640;28;20034;-65
2022/09/06 13:02:50;;;;;;;12.23;2.50;;;;;;;;;;4974137;28;20057;-65
2022/09/06 13:05:16;;;;;;;;;;;;;;;;;;5004882;28;20053;-65
2022/09/06 13:07:44;;;;;;;12.73;2.28;;;;;;;;;;5015199;28;19925;-65
2022/09/06 13:10:12;;;;;;;11.18;2.28;;;;;;;;;;5015196;28;20117;-65
2022/09/06 13:12:40;;;;;;;16.67;3.15;;;;;;;;;;5015149;28;20049;-65
2022/09/06 13:15:11;;;;;;;16.25;3.05;;;;;;;;;;5014892;28;20117;-65
2022/09/06 13:17:38;;;;;;;24.23;3.47;;;;;;;;;;5015115;28;20041;-65
2022/09/06 13:20:30;;;;;;;20.17;3.72;;;;;;;;;;5014945;28;20621;-65
2022/09/06 13:23:10;;;;;;;11.10;2.83;;;;;;;;;;5014782;28;20057;-65
2022/09/06 13:25:49;;;;;;;10.00;2.35;;;;;;;;;;5014468;28;20033;-65
2022/09/06 13:28:24;;;;;;;19.95;3.50;;;;;;;;;;5014579;28;20046;-65
2022/09/06 13:31:07;;;;;;;12.80;3.22;;;;;;;;;;5014818;28;20490;-65
2022/09/06 13:33:33;;;;;;;;;;;;;;;;;;5014776;28;20541;-64
2022/09/06 13:36:11;;;;;;;15.15;3.17;;;;;;;;;;5014539;28;19988;-65
2022/09/06 13:38:37;;;;;;;13.30;2.60;;;;;;;;;;5014704;28;20394;-65
2022/09/06 13:41:22;;;;;;;17.35;3.42;;;;;;;;;;5014519;28;20022;-65
2022/09/06 13:43:56;;;;;;;9.48;3.83;;;;;;;;;;5014399;28;20068;-65
2022/09/06 13:46:22;;;;;;;21.65;3.30;;;;;;;;;;5014465;28;20057;-65
2022/09/06 13:48:48;;;;;;;15.98;3.05;;;;;;;;;;5014250;28;20022;-65
2022/09/06 13:51:14;;;;;;;13.68;3.47;;;;;;;;;;5014321;28;20026;-65
2022/09/06 13:53:41;;;;;;;12.85;2.90;;;;;;;;;;5013684;28;20026;-65
2022/09/06 13:56:07;;;;;;;14.52;3.08;;;;;;;;;;5014083;28;20064;-65
2022/09/06 13:58:34;;;;;;;13.98;2.97;;;;;;;;;;5009516;28;20498;-65
2022/09/06 14:01:00;;;;;;;16.60;3.25;;;;;;;;;;5022068;28;20444;-65
2022/09/06 14:03:28;;;;;;;16.85;3.58;;;;;;;;;;5022218;28;20550;-65
2022/09/06 14:05:54;;;;;;;15.80;3.53;;;;;;;;;;5021253;28;20432;-65
2022/09/06 14:08:20;;;;;;;18.75;3.45;;;;;;;;;;5017620;28;20514;-65
2022/09/06 14:10:47;;;;;;;20.25;3.47;;;;;;;;;;5007914;28;20065;-65
2022/09/06 14:13:14;;;;;;;20.95;3.65;;;;;;;;;;5018632;28;20101;-65
2022/09/06 14:15:40;;;;;;;23.02;3.47;;;;;;;;;;5022336;28;20025;-65
2022/09/06 14:18:06;;;;;;;19.33;3.47;;;;;;;;;;5023251;28;20041;-65
2022/09/06 14:20:32;;;;;;;19.13;3.65;;;;;;;;;;5018513;28;20037;-65
2022/09/06 14:22:59;;;;;;;26.67;4.35;;;;;;;;;;5018585;28;20032;-65
2022/09/06 14:25:25;;;;;;;18.90;3.10;;;;;;;;;;5013651;28;20142;-65
2022/09/06 14:27:51;;;;;;;24.13;3.13;;;;;;;;;;5012115;28;20528;-65
2022/09/06 14:30:17;;;;;;;8.75;3.20;;;;;;;;;;4996180;28;20095;-65
2022/09/06 14:32:43;;;;;;;17.25;3.03;;;;;;;;;;5016855;28;20022;-65
2022/09/06 14:35:09;;;;;;;21.73;3.22;;;;;;;;;;5020491;28;20033;-65
2022/09/06 14:37:36;;;;;;;18.42;3.45;;;;;;;;;;5026455;28;20018;-65
2022/09/06 14:40:02;;;;;;;19.73;3.90;;;;;;;;;;5020276;28;20025;-64
2022/09/06 14:42:28;;;;;;;20.27;3.45;;;;;;;;;;5003680;28;20431;-65